Map

Track Data

SID SEASON NUMBER BASIN SUBBASIN NAME ISO_TIME NATURE LAT LON WMO_WIND WMO_PRES WMO_AGENCY TRACK_TYPE DIST2LAND LANDFALL IFLAG USA_AGENCY USA_ATCF_ID USA_LAT USA_LON USA_RECORD USA_STATUS USA_WIND USA_PRES USA_SSHS USA_R34_NE USA_R34_SE USA_R34_SW USA_R34_NW USA_R50_NE USA_R50_SE USA_R50_SW USA_R50_NW USA_R64_NE USA_R64_SE USA_R64_SW USA_R64_NW USA_POCI USA_ROCI USA_RMW USA_EYE TOKYO_LAT TOKYO_LON TOKYO_GRADE TOKYO_WIND TOKYO_PRES TOKYO_R50_DIR TOKYO_R50_LONG TOKYO_R50_SHORT TOKYO_R30_DIR TOKYO_R30_LONG TOKYO_R30_SHORT TOKYO_LAND CMA_LAT CMA_LON CMA_CAT CMA_WIND CMA_PRES HKO_LAT HKO_LON HKO_CAT HKO_WIND HKO_PRES NEWDELHI_LAT NEWDELHI_LON NEWDELHI_GRADE NEWDELHI_WIND NEWDELHI_PRES NEWDELHI_CI NEWDELHI_DP NEWDELHI_POCI REUNION_LAT REUNION_LON REUNION_TYPE REUNION_WIND REUNION_PRES REUNION_TNUM REUNION_CI REUNION_RMW REUNION_R34_NE REUNION_R34_SE REUNION_R34_SW REUNION_R34_NW REUNION_R50_NE REUNION_R50_SE REUNION_R50_SW REUNION_R50_NW REUNION_R64_NE REUNION_R64_SE REUNION_R64_SW REUNION_R64_NW BOM_LAT BOM_LON BOM_TYPE BOM_WIND BOM_PRES BOM_TNUM BOM_CI BOM_RMW BOM_R34_NE BOM_R34_SE BOM_R34_SW BOM_R34_NW BOM_R50_NE BOM_R50_SE BOM_R50_SW BOM_R50_NW BOM_R64_NE BOM_R64_SE BOM_R64_SW BOM_R64_NW BOM_ROCI BOM_POCI BOM_EYE BOM_POS_METHOD BOM_PRES_METHOD NADI_LAT NADI_LON NADI_CAT NADI_WIND NADI_PRES WELLINGTON_LAT WELLINGTON_LON WELLINGTON_WIND WELLINGTON_PRES DS824_LAT DS824_LON DS824_STAGE DS824_WIND DS824_PRES TD9636_LAT TD9636_LON TD9636_STAGE TD9636_WIND TD9636_PRES TD9635_LAT TD9635_LON TD9635_WIND TD9635_PRES TD9635_ROCI NEUMANN_LAT NEUMANN_LON NEUMANN_CLASS NEUMANN_WIND NEUMANN_PRES MLC_LAT MLC_LON MLC_CLASS MLC_WIND MLC_PRES USA_GUST BOM_GUST BOM_GUST_PER REUNION_GUST REUNION_GUST_PER USA_SEAHGT USA_SEARAD_NE USA_SEARAD_SE USA_SEARAD_SW USA_SEARAD_NW STORM_SPEED STORM_DIR
1943015S19051 1943 8 SI MM NOT_NAMED 1943-01-15 06:00:00 NR -18.6000 50.9000 reunion main 164 164 _____O________ -1 -18.6000 50.9000 99 9.90000 1 229
1943015S19051 1943 8 SI MM NOT_NAMED 1943-01-15 09:00:00 NR -18.6366 50.8672 main 164 157 _____P________ -1 -18.6366 50.8672 99 1 221
1943015S19051 1943 8 SI MM NOT_NAMED 1943-01-15 12:00:00 NR -18.6733 50.8328 main 157 157 _____P________ -1 -18.6733 50.8328 99 1 221
1943015S19051 1943 8 SI MM NOT_NAMED 1943-01-15 15:00:00 NR -18.7102 50.7951 main 157 157 _____P________ -1 -18.7102 50.7951 99 1 225
1943015S19051 1943 8 SI MM NOT_NAMED 1943-01-15 18:00:00 NR -18.7473 50.7524 main 157 148 _____P________ -1 -18.7473 50.7524 99 1 231
1943015S19051 1943 8 SI MM NOT_NAMED 1943-01-15 21:00:00 NR -18.7848 50.7033 main 152 143 _____P________ -1 -18.7848 50.7033 99 1 235
1943015S19051 1943 8 SI MM NOT_NAMED 1943-01-16 00:00:00 NR -18.8227 50.6459 main 143 143 _____P________ -1 -18.8227 50.6459 99 1 238
1943015S19051 1943 8 SI MM NOT_NAMED 1943-01-16 03:00:00 NR -18.8610 50.5787 main 147 138 _____P________ -1 -18.8610 50.5787 99 2 241
1943015S19051 1943 8 SI MM NOT_NAMED 1943-01-16 06:00:00 NR -18.9000 50.5000 reunion main 138 128 _____O________ -1 -18.9000 50.5000 99 9.90000 2 244
1943015S19051 1943 8 SI MM NOT_NAMED 1943-01-16 09:00:00 NR -18.9397 50.4091 main 128 120 _____P________ -1 -18.9397 50.4091 99 2 246
1943015S19051 1943 8 SI MM NOT_NAMED 1943-01-16 12:00:00 NR -18.9808 50.3085 main 120 110 _____P________ -1 -18.9808 50.3085 99 2 247
1943015S19051 1943 8 SI MM NOT_NAMED 1943-01-16 15:00:00 NR -19.0241 50.2018 main 110 100 _____P________ -1 -19.0241 50.2018 99 2 246
1943015S19051 1943 8 SI MM NOT_NAMED 1943-01-16 18:00:00 NR -19.0703 50.0926 main 104 95 _____P________ -1 -19.0703 50.0926 99 2 245
1943015S19051 1943 8 SI MM NOT_NAMED 1943-01-16 21:00:00 NR -19.1202 49.9843 main 95 84 _____P________ -1 -19.1202 49.9843 99 2 243
1943015S19051 1943 8 SI MM NOT_NAMED 1943-01-17 00:00:00 NR -19.1746 49.8804 main 86 76 _____P________ -1 -19.1746 49.8804 99 2 239
1943015S19051 1943 8 SI MM NOT_NAMED 1943-01-17 03:00:00 NR -19.2342 49.7844 main 76 71 _____P________ -1 -19.2342 49.7844 99 2 234
1943015S19051 1943 8 SI MM NOT_NAMED 1943-01-17 06:00:00 NR -19.3000 49.7000 reunion main 71 66 _____O________ -1 -19.3000 49.7000 99 9.90000 2 226
1943015S19051 1943 8 SI MM NOT_NAMED 1943-01-17 09:00:00 NR -19.3754 49.6354 main 66 66 _____P________ -1 -19.3754 49.6354 99 2 216
1943015S19051 1943 8 SI MM NOT_NAMED 1943-01-17 12:00:00 NR -19.4574 49.5809 main 71 62 _____P________ -1 -19.4574 49.5809 99 2 209
1943015S19051 1943 8 SI MM NOT_NAMED 1943-01-17 15:00:00 NR -19.5444 49.5353 main 62 62 _____P________ -1 -19.5444 49.5353 99 2 204
1943015S19051 1943 8 SI MM NOT_NAMED 1943-01-17 18:00:00 NR -19.6349 49.4974 main 66 66 _____P________ -1 -19.6349 49.4974 99 2 199
1943015S19051 1943 8 SI MM NOT_NAMED 1943-01-17 21:00:00 NR -19.7272 49.4662 main 71 62 _____P________ -1 -19.7272 49.4662 99 2 197
1943015S19051 1943 8 SI MM NOT_NAMED 1943-01-18 00:00:00 NR -19.8199 49.4403 main 62 62 _____P________ -1 -19.8199 49.4403 99 2 194
1943015S19051 1943 8 SI MM NOT_NAMED 1943-01-18 03:00:00 NR -19.9114 49.4186 main 62 62 _____P________ -1 -19.9114 49.4186 99 2 194
1943015S19051 1943 8 SI MM NOT_NAMED 1943-01-18 06:00:00 NR -20.0000 49.4000 reunion main 62 62 _____O________ -1 -20.0000 49.4000 99 9.90000 2 195
1943015S19051 1943 8 SI MM NOT_NAMED 1943-01-18 09:00:00 NR -20.0777 49.3762 main 63 63 _____P________ -1 -20.0777 49.3762 99 2 195
1943015S19051 1943 8 SI MM NOT_NAMED 1943-01-18 12:00:00 NR -20.1531 49.3565 main 66 56 _____P________ -1 -20.1531 49.3565 99 2 193
1943015S19051 1943 8 SI MM NOT_NAMED 1943-01-18 15:00:00 NR -20.2269 49.3403 main 56 31 _____P________ -1 -20.2269 49.3403 99 3 303
1943015S19051 1943 8 SI MM NOT_NAMED 1943-01-18 18:00:00 NR -20.0000 49.1019 main 31 20 _____P____O___ -1 -20.3000 49.3274 99 -18.8000 48.2000 7 5 313
1943015S19051 1943 8 SI MM NOT_NAMED 1943-01-18 21:00:00 NR -19.8977 48.9626 main 20 0 _____P____P___ -1 -20.3730 49.3173 99 -18.9469 48.2530 7 3 306
1943015S19051 1943 8 SI MM NOT_NAMED 1943-01-19 00:00:00 TS -19.8091 48.8192 main 0 0 _____P___OP___ -1 -20.4469 49.3096 99 -19.4000 48.4000 TC 25 -19.0950 48.3049 7 2 292
1943015S19051 1943 8 SI MM NOT_NAMED 1943-01-19 03:00:00 TS -19.8167 48.7538 main 0 0 _____P___PP___ -1 -20.5223 49.3040 99 -19.5475 48.4525 TC 25 -19.2456 48.3543 7 1 209
1943015S19051 1943 8 SI MM NOT_NAMED 1943-01-19 06:00:00 TS -19.9182 48.7545 reunion main 0 0 _____O___OO___ -1 -20.6000 49.3000 99 9.90000 -19.7000 48.5000 TC 25 -19.4000 48.4000 1 2 177
1943015S19051 1943 8 SI MM NOT_NAMED 1943-01-19 09:00:00 TS -20.0258 48.7593 main 0 0 _____P___PP___ -1 -20.6618 49.2935 99 -19.8575 48.5425 TC 25 -19.5581 48.4419 1 2 171
1943015S19051 1943 8 SI MM NOT_NAMED 1943-01-19 12:00:00 TS -20.1460 48.7913 main 10 10 _____P___OP___ -1 -20.7231 49.2888 99 -20.0000 48.6000 TC 25 -19.7150 48.4851 1 2 163
1943015S19051 1943 8 SI MM NOT_NAMED 1943-01-19 15:00:00 TS -20.2533 48.8381 main 15 15 _____P___PP___ -1 -20.7879 49.2860 99 -20.1075 48.6925 TC 25 -19.8643 48.5357 1 2 156
1943015S19051 1943 8 SI MM NOT_NAMED 1943-01-19 18:00:00 TS -20.3533 48.8950 main 30 30 _____P___OO___ -1 -20.8600 49.2851 99 -20.2000 48.8000 TC 25 -20.0000 48.6000 1 2 150
1943015S19051 1943 8 SI MM NOT_NAMED 1943-01-19 21:00:00 TS -20.4474 48.9611 main 38 38 _____P___PP___ -1 -20.9434 49.2860 99 -20.2925 48.9075 TC 25 -20.1063 48.6897 1 2 147
1943015S19051 1943 8 SI MM NOT_NAMED 1943-01-20 00:00:00 TS -20.5473 49.0271 main 43 43 _____P___OP___ -1 -21.0419 49.2888 99 -20.4000 49.0000 TC 25 -20.2000 48.7926 1 2 153
1943015S19051 1943 8 SI MM NOT_NAMED 1943-01-20 03:00:00 TS -20.6652 49.0809 main 61 61 _____P___PP___ -1 -21.1595 49.2935 99 -20.5425 49.0500 TC 25 -20.2938 48.8991 1 3 159
1943015S19051 1943 8 SI MM NOT_NAMED 1943-01-20 06:00:00 TS -20.8000 49.1333 reunion main 66 66 _____O___OO___ -1 -21.3000 49.3000 99 9.90000 -20.7000 49.1000 TC 25 -20.4000 49.0000 1 3 162
1943015S19051 1943 8 SI MM NOT_NAMED 1943-01-20 09:00:00 TS -20.9539 49.1865 main 83 83 _____P___PP___ -1 -21.4605 49.2930 99 -20.8575 49.1925 TC 25 -20.5437 49.0741 1 3 162
1943015S19051 1943 8 SI MM NOT_NAMED 1943-01-20 12:00:00 TS -21.1141 49.2429 main 83 83 _____P___OP___ -1 -21.6425 49.2862 99 -21.0000 49.3000 TC 25 -20.6999 49.1426 1 3 161
1943015S19051 1943 8 SI MM NOT_NAMED 1943-01-20 15:00:00 TS -21.2694 49.2966 main 99 99 _____P___PP___ -1 -21.8445 49.2824 99 -21.1075 49.3925 TC 25 -20.8562 49.2147 1 3 160
1943015S19051 1943 8 SI MM NOT_NAMED 1943-01-20 18:00:00 TS -21.4216 49.3614 main 112 112 _____P___OO___ -1 -22.0649 49.2841 99 -21.2000 49.5000 TC 25 -21.0000 49.3000 1 3 155
1943015S19051 1943 8 SI MM NOT_NAMED 1943-01-20 21:00:00 TS -21.5527 49.4375 main 115 115 _____P___PP___ -1 -22.3023 49.2940 99 -21.2700 49.6277 TC 25 -21.0858 49.3907 1 3 150
1943015S19051 1943 8 SI MM NOT_NAMED 1943-01-21 00:00:00 TS -21.7057 49.5377 main 128 128 _____P___OP___ -1 -22.5549 49.3148 99 -21.4000 49.8000 TC 25 -21.1623 49.4982 1 4 149
1943015S19051 1943 8 SI MM NOT_NAMED 1943-01-21 03:00:00 TS -21.9188 49.6719 main 155 155 _____P___PP___ -1 -22.8213 49.3492 99 -21.6775 50.0349 TC 25 -21.2576 49.6315 1 5 149
1943015S19051 1943 8 SI MM NOT_NAMED 1943-01-21 06:00:00 TS -22.1667 49.8333 reunion main 170 170 _____O___OO___ -1 -23.1000 49.4000 99 9.90000 -22.0000 50.3000 TC 25 -21.4000 49.8000 1 6 149
1943015S19051 1943 8 SI MM NOT_NAMED 1943-01-21 09:00:00 TS -22.4350 50.0072 main 197 197 _____P___PP___ -1 -23.3875 49.4582 99 -22.2725 50.5500 TC 25 -21.6451 50.0135 1 6 148
1943015S19051 1943 8 SI MM NOT_NAMED 1943-01-21 12:00:00 TS -22.7086 50.1976 main 229 229 _____P___OP___ -1 -23.6906 49.5312 99 -22.5000 50.8000 TC 25 -21.9351 50.2617 1 6 146
1943015S19051 1943 8 SI MM NOT_NAMED 1943-01-21 15:00:00 TS -22.9676 50.3996 main 261 261 _____P___PP___ -1 -24.0052 49.6194 99 -22.6650 51.0501 TC 25 -22.2326 50.5292 1 6 143
1943015S19051 1943 8 SI MM NOT_NAMED 1943-01-21 18:00:00 TS -23.2090 50.6077 main 287 287 _____P___OO___ -1 -24.3270 49.7231 99 -22.8000 51.3000 TC 25 -22.5000 50.8000 1 6 141
1943015S19051 1943 8 SI MM NOT_NAMED 1943-01-21 21:00:00 TS -23.4200 50.8028 main 311 311 _____P___PP___ -1 -24.6516 49.8427 99 -22.9349 51.5352 TC 25 -22.6734 51.0305 1 6 138
1943015S19051 1943 8 SI MM NOT_NAMED 1943-01-22 00:00:00 TS -23.6298 51.0141 main 336 336 _____P___OP___ -1 -24.9748 49.9785 99 -23.1000 51.8000 TC 25 -22.8144 51.2637 1 6 137
1943015S19051 1943 8 SI MM NOT_NAMED 1943-01-22 03:00:00 TS -23.8610 51.2578 main 370 370 _____P___PP___ -1 -25.2924 50.1309 99 -23.3425 52.1274 TC 25 -22.9483 51.5150 1 7 135
1943015S19051 1943 8 SI MM NOT_NAMED 1943-01-22 06:00:00 TS -24.1000 51.5333 reunion main 394 394 _____O___OO___ -1 -25.6000 50.3000 99 9.90000 -23.6000 52.5000 TC 25 -23.1000 51.8000 1 7 132
1943015S19051 1943 8 SI MM NOT_NAMED 1943-01-22 09:00:00 TS -24.3416 51.8364 main 428 428 _____P___PP___ -1 -25.8944 50.4859 99 -23.8150 52.8926 TC 25 -23.3156 52.1307 1 7 130
1943015S19051 1943 8 SI MM NOT_NAMED 1943-01-22 12:00:00 TS -24.5754 52.1613 main 476 476 _____P___OP___ -1 -26.1762 50.6869 99 -24.0000 53.3000 TC 25 -23.5499 52.4971 1 8 127
1943015S19051 1943 8 SI MM NOT_NAMED 1943-01-22 15:00:00 TS -24.7963 52.4946 main 484 478 _____P___PP___ -1 -26.4472 50.9011 99 -24.1573 53.6927 TC 25 -23.7842 52.8901 1 8 125
1943015S19051 1943 8 SI MM NOT_NAMED 1943-01-22 18:00:00 TS -25.0030 52.8422 main 486 480 _____P___OO___ -1 -26.7091 51.1265 99 -24.3000 54.1000 TC 25 -24.0000 53.3000 1 8 121
1943015S19051 1943 8 SI MM NOT_NAMED 1943-01-22 21:00:00 TS -25.1898 53.2051 main 485 465 _____P___PP___ -1 -26.9636 51.3612 99 -24.4424 54.5427 TC 30 -24.1633 53.7113 1 9 104
1943015S19051 1943 8 SI MM NOT_NAMED 1943-01-23 00:00:00 TS -25.2060 53.7594 main 462 444 _____P___OP___ -1 -27.2125 51.6030 99 -24.6000 55.0000 TC 35 -24.3073 54.1360 1 11 90
1943015S19051 1943 8 SI MM NOT_NAMED 1943-01-23 03:00:00 TS -25.1875 54.3800 main 442 418 _____P___PP___ -1 -27.4574 51.8499 99 -24.7924 55.4575 TC 35 -24.4476 54.5676 1 12 86
1943015S19051 1943 8 SI MM NOT_NAMED 1943-01-23 06:00:00 TS -25.1222 55.0778 reunion main 416 402 _____O___OO___ -1 -27.7000 52.1000 99 9.90000 -25.0000 55.9000 TC 35 -24.6000 55.0000 2 14 82
1943015S19051 1943 8 SI MM NOT_NAMED 1943-01-23 09:00:00 TS -24.9927 55.8762 main 403 403 _________PP___ -1 99 -25.1999 56.3151 TC 35 -24.7855 55.4372 2 11 94
1943015S19051 1943 8 SI MM NOT_NAMED 1943-01-23 12:00:00 TS -25.1924 56.2863 main 430 430 _________OP___ -1 99 -25.4000 56.7000 TC 35 -24.9849 55.8725 2 8 119
1943015S19051 1943 8 SI MM NOT_NAMED 1943-01-23 15:00:00 TS -25.3958 56.6771 main 460 460 _________PP___ -1 99 -25.5999 57.0577 TC 35 -25.1918 56.2966 2 8 121
1943015S19051 1943 8 SI MM NOT_NAMED 1943-01-23 18:00:00 TS -25.6000 57.0500 main 493 493 _________OO___ -1 99 -25.8000 57.4000 TC 35 -25.4000 56.7000 2 8 122
1943015S19051 1943 8 SI MM NOT_NAMED 1943-01-23 21:00:00 TS -25.8015 57.3936 main 524 524 _________PP___ -1 99 -25.9998 57.7352 TC 35 -25.6032 57.0519 2 7 123
1943015S19051 1943 8 SI MM NOT_NAMED 1943-01-24 00:00:00 TS -26.0031 57.7430 main 556 556 _________OP___ -1 99 -26.2000 58.1000 TC 35 -25.8062 57.3859 2 8 122
1943015S19051 1943 8 SI MM NOT_NAMED 1943-01-24 03:00:00 TS -26.2068 58.1272 main 593 593 _________PP___ -1 99 -26.4074 58.5275 TC 35 -26.0062 57.7269 2 8 119
1943015S19051 1943 8 SI MM NOT_NAMED 1943-01-24 06:00:00 TS -26.4000 58.5500 main 636 636 _________OO___ -1 -26.6000 59.0000 TC 35 -26.2000 58.1000 2 9 114
1943015S19051 1943 8 SI MM NOT_NAMED 1943-01-24 09:00:00 TS -26.5620 59.0162 main 675 675 _________PP___ -1 -26.7499 59.4928 TC 35 -26.3741 58.5396 2 9 111
1943015S19051 1943 8 SI MM NOT_NAMED 1943-01-24 12:00:00 TS -26.7213 59.5067 main 710 710 _________OP___ -1 -26.9000 60.0000 TC 35 -26.5426 59.0133 2 9 111
1943015S19051 1943 8 SI MM NOT_NAMED 1943-01-24 15:00:00 TS -26.8998 60.0065 main 752 752 _________PP___ -1 -27.0849 60.5076 TC 35 -26.7147 59.5054 2 10 113
1943015S19051 1943 8 SI MM NOT_NAMED 1943-01-24 18:00:00 TS -27.1000 60.5000 main 790 790 _________OO___ -1 -27.3000 61.0000 TC 35 -26.9000 60.0000 2 10 117
1943015S19051 1943 8 SI MM NOT_NAMED 1943-01-24 21:00:00 TS -27.3301 60.9761 main 830 830 _________PP___ -1 -27.5498 61.4650 TC 35 -27.1104 60.4873 2 10 119
1943015S19051 1943 8 SI MM NOT_NAMED 1943-01-25 00:00:00 TS -27.5674 61.4363 main 877 877 _________OP___ -1 -27.8000 61.9000 TC 35 -27.3348 60.9726 2 9 120
1943015S19051 1943 8 SI MM NOT_NAMED 1943-01-25 03:00:00 TS -27.7833 61.8773 main 920 920 _________PP___ -1 -27.9998 62.3079 TC 35 -27.5667 61.4467 2 9 120
1943015S19051 1943 8 SI MM NOT_NAMED 1943-01-25 06:00:00 TS -28.0000 62.3000 main 958 958 _________OO___ -1 -28.2000 62.7000 TC 35 -27.8000 61.9000 2 9 121
1943015S19051 1943 8 SI MM NOT_NAMED 1943-01-25 09:00:00 TS -28.2293 62.7133 main 997 997 _________PP___ -1 -28.4424 63.1001 TC 35 -28.0163 62.3265 2 9 123
1943015S19051 1943 8 SI MM NOT_NAMED 1943-01-25 12:00:00 TS -28.4671 63.1156 main 1047 1047 _________OP___ -1 -28.7000 63.5000 TC 35 -28.2342 62.7312 2 8 124
1943015S19051 1943 8 SI MM NOT_NAMED 1943-01-25 15:00:00 TS -28.7013 63.5140 main 1087 1087 _________PP___ -1 -28.9424 63.9077 TC 35 -28.4601 63.1202 2 8 125
1943015S19051 1943 8 SI MM NOT_NAMED 1943-01-25 18:00:00 TS -28.9500 63.9000 main 1127 1136 _________OO___ -1 -29.2000 64.3000 TC 35 -28.7000 63.5000 2 8 129
1943015S19051 1943 8 SI MM NOT_NAMED 1943-01-25 21:00:00 TS -29.2101 64.2341 main 1171 1171 _________PP___ -1 -29.4770 64.6208 TC 35 -28.9432 63.8474 2 8 132
1943015S19051 1943 8 SI MM NOT_NAMED 1943-01-26 00:00:00 TS -29.5016 64.5964 main 1221 1221 _________OP___ -1 -29.8000 65.0000 TC 35 -29.2031 64.1928 2 10 131
1943015S19051 1943 8 SI MM NOT_NAMED 1943-01-26 03:00:00 TS -29.8396 65.0644 main 1277 1277 _________PP___ -1 -30.1927 65.5622 TC 30 -29.4866 64.5667 2 11 129
1943015S19051 1943 8 SI MM NOT_NAMED 1943-01-26 06:00:00 TS -30.2000 65.6000 main 1341 1341 _________OO___ -1 -30.6000 66.2000 TC 25 -29.8000 65.0000 2 12 127
1943015S19051 1943 8 SI MM NOT_NAMED 1943-01-26 09:00:00 TS -30.5558 66.1599 main 1412 1412 _________PP___ -1 -30.9571 66.7932 TC 25 -30.1546 65.5267 2 12 126
1943015S19051 1943 8 SI MM NOT_NAMED 1943-01-26 12:00:00 TS -30.9176 66.7585 main 1474 1474 _________OP___ -1 -31.3000 67.4000 TC 25 -30.5351 66.1169 2 13 125
1943015S19051 1943 8 SI MM NOT_NAMED 1943-01-26 15:00:00 TS -31.2902 67.3958 main 1545 1545 _________PP___ -1 -31.6573 68.0427 TC 25 -30.9231 66.7489 2 12 124
1943015S19051 1943 8 SI MM NOT_NAMED 1943-01-26 18:00:00 TS -31.6000 67.9571 main 1608 1608 _________OO___ -1 -32.0000 68.7000 TC 25 -31.3000 67.4000 7 11 122
1943015S19051 1943 8 SI MM NOT_NAMED 1943-01-26 21:00:00 TS -31.8716 68.4847 main 1665 1665 _________PP___ -1 -32.3106 69.3518 TC 25 -31.6521 68.0512 7 11 121
1943015S19051 1943 8 SI MM NOT_NAMED 1943-01-27 00:00:00 TS -32.1365 69.0252 main 1713 1713 _________OP___ -1 -32.6000 70.0000 TC 25 -31.9820 68.7002 7 8 120
1943015S19051 1943 8 SI MM NOT_NAMED 1943-01-27 03:00:00 NR -32.2958 69.3491 main 1749 1749 __________P___ -1 TC -32.2958 69.3491 7 9 119
1943015S19051 1943 8 SI MM NOT_NAMED 1943-01-27 06:00:00 NR -32.6000 70.0000 main 1804 __________O___ -1 -32.6000 70.0000 7 13 119

About IBTrACS Database

This database is a web-friendly format of International Best Track Archive for Climate Stewardship (IBTrACS), a global best track data archive curated by NOAA dating back to 1842.

Updated: 2021-12-08